Terminal Aerodrome Forecast
Issued by NWS Charleston, WV

Current Version | Previous Version | Text Only | Print | Product List | Glossary Off
Versions: 1 2 3 4 5 6 7 8 9 10 11 12 13 14 15 16 17 18 19 20 21 22 23 24 25 26

000
FTUS41 KRLX 250400 AAB
TAFEKN
TAF AMD
KEKN 250457Z 2505/2524 26008G18KT P6SM BKN035
     FM250800 27010G20KT 6SM -SHSN BKN020
     FM251400 28010KT P6SM SCT015=

USA.gov is the U.S. government's official web portal to all federal, state and local government web resources and services.